Time;durP1;ratioP1;P1;durP2;ratioP2;P2;SDS_P1;SDS_P2;PMS_P1;PMS_P2;Temp;Humidity;BMP_temperature;BMP_pressure;BME280_temperature;BME280_humidity;BME280_pressure;Samples;Min_cycle;Max_cycle;Signal;HPM_P1;HPM_P2
2022/09/20 00:01:45;;;;;;;;;;;;;;;;;;4993981;28;20381;-77
2022/09/20 00:04:10;;;;;;;;;;;;;;;;;;4993819;28;20267;-77
2022/09/20 00:06:36;;;;;;;;;;;;;;;;;;4992762;28;19914;-77
2022/09/20 00:09:02;;;;;;;;;;;;;;;;;;4993741;28;20348;-77
2022/09/20 00:11:27;;;;;;;;;;;;;;;;;;4992411;28;19920;-77
2022/09/20 00:13:53;;;;;;;;;;;;;;;;;;4993639;28;20056;-77
2022/09/20 00:16:18;;;;;;;;;;;;;;;;;;4992304;28;19933;-77
2022/09/20 00:18:44;;;;;;;;;;;;;;;;;;4993610;28;20001;-76
2022/09/20 00:21:09;;;;;;;;;;;;;;;;;;4993527;28;20004;-77
2022/09/20 00:23:35;;;;;;;;;;;;;;;;;;4989743;28;19914;-77
2022/09/20 00:26:00;;;;;;;;;;;;;;;;;;4985900;28;20397;-77
2022/09/20 00:28:26;;;;;;;;;;;;;;;;;;4992312;28;19918;-77
2022/09/20 00:30:51;;;;;;;;;;;;;;;;;;4992516;28;20377;-77
2022/09/20 00:33:16;;;;;;;;;;;;;;;;;;4998589;28;19936;-77
2022/09/20 00:35:42;;;;;;;;;;;;;;;;;;4993520;28;19914;-77
2022/09/20 00:38:07;;;;;;;;;;;;;;;;;;4993129;28;20389;-77
2022/09/20 00:40:32;;;;;;;;;;;;;;;;;;4975802;28;19917;-77
2022/09/20 00:42:58;;;;;;;;;;;;;;;;;;4993205;28;20002;-77
2022/09/20 00:45:23;;;;;;;;;;;;;;;;;;4975587;28;19913;-77
2022/09/20 00:47:48;;;;;;;;;;;;;;;;;;4993301;28;19920;-77
2022/09/20 00:50:14;;;;;;;;;;;;;;;;;;4977124;28;20403;-77
2022/09/20 00:52:39;;;;;;;;;;;;;;;;;;4993047;28;19925;-77
2022/09/20 00:55:05;;;;;;;;;;;;;;;;;;4991950;28;19914;-77
2022/09/20 00:57:34;;;;;;;;;;;;;;;;;;4993141;28;19914;-77
2022/09/20 00:59:59;;;;;;;;;;;;;;;;;;4993006;28;19921;-77
2022/09/20 01:02:24;;;;;;;;;;;;;;;;;;4992209;28;19913;-77
2022/09/20 01:04:50;;;;;;;;;;;;;;;;;;4991725;28;20266;-77
2022/09/20 01:07:15;;;;;;;;;;;;;;;;;;4964841;28;19920;-77
2022/09/20 01:09:41;;;;;;;;;;;;;;;;;;4975349;28;19949;-77
2022/09/20 01:12:06;;;;;;;;;;;;;;;;;;4992858;28;19921;-78
2022/09/20 01:14:31;;;;;;;;;;;;;;;;;;4992729;28;20025;-77
2022/09/20 01:16:57;;;;;;;;;;;;;;;;;;4992139;28;19914;-77
2022/09/20 01:19:22;;;;;;;;;;;;;;;;;;4992696;28;19921;-78
2022/09/20 01:21:47;;;;;;;;;;;;;;;;;;4991614;28;20040;-78
2022/09/20 01:24:13;;;;;;;;;;;;;;;;;;4991218;28;19917;-76
2022/09/20 01:26:38;;;;;;;;;;;;;;;;;;4991537;28;19921;-77
2022/09/20 01:29:03;;;;;;;;;;;;;;;;;;4992688;28;20369;-77
2022/09/20 01:31:29;;;;;;;;;;;;;;;;;;4991868;28;20859;-77
2022/09/20 01:33:54;;;;;;;;;;;;;;;;;;4992425;28;20368;-77
2022/09/20 01:36:19;;;;;;;;;;;;;;;;;;4992734;28;19918;-76
2022/09/20 01:38:45;;;;;;;;;;;;;;;;;;4992364;28;19918;-77
2022/09/20 01:41:11;;;;;;;;;;;;;;;;;;4991355;28;20389;-77
2022/09/20 01:43:36;;;;;;;;;;;;;;;;;;4991380;28;20101;-77
2022/09/20 01:46:01;;;;;;;;;;;;;;;;;;4992434;28;19960;-77
2022/09/20 01:48:27;;;;;;;;;;;;;;;;;;4992130;28;20002;-78
2022/09/20 01:50:52;;;;;;;;;;;;;;;;;;4992552;28;19914;-77
2022/09/20 01:53:17;;;;;;;;;;;;;;;;;;4992417;28;19914;-76
2022/09/20 01:55:43;;;;;;;;;;;;;;;;;;4992497;28;19910;-77
2022/09/20 01:58:08;;;;;;;;;;;;;;;;;;4991109;28;19933;-78
2022/09/20 02:00:33;;;;;;;;;;;;;;;;;;4991291;28;20385;-77
2022/09/20 02:02:59;;;;;;;;;;;;;;;;;;4994197;28;20363;-77
2022/09/20 02:05:24;;;;;;;;;;;;;;;;;;4996443;28;19921;-77
2022/09/20 02:07:51;;;;;;;;;;;;;;;;;;4996299;28;19917;-77
2022/09/20 02:10:16;;;;;;;;;;;;;;;;;;4996313;28;19918;-77
2022/09/20 02:12:41;;;;;;;;;;;;;;;;;;4978953;28;20004;-77
2022/09/20 02:15:07;;;;;;;;;;;;;;;;;;4996272;28;19914;-77
2022/09/20 02:17:32;;;;;;;;;;;;;;;;;;4996132;28;19918;-77
2022/09/20 02:19:57;;;;;;;;;;;;;;;;;;4994437;28;19914;-77
2022/09/20 02:22:23;;;;;;;;;;;;;;;;;;4995908;28;19913;-77
2022/09/20 02:24:48;;;;;;;;;;;;;;;;;;4995942;28;20063;-77
2022/09/20 02:27:13;;;;;;;;;;;;;;;;;;4996018;28;19914;-77
2022/09/20 02:29:39;;;;;;;;;;;;;;;;;;4995985;28;19914;-78
2022/09/20 02:32:04;;;;;;;;;;;;;;;;;;4995751;28;20063;-77
2022/09/20 02:34:29;;;;;;;;;;;;;;;;;;4995381;28;20599;-77
2022/09/20 02:36:55;;;;;;;;;;;;;;;;;;4995767;28;19913;-77
2022/09/20 02:39:20;;;;;;;;;;;;;;;;;;4994280;28;19971;-77
2022/09/20 02:41:45;;;;;;;;;;;;;;;;;;4994795;28;19914;-78
2022/09/20 02:44:11;;;;;;;;;;;;;;;;;;4995699;28;19993;-77
2022/09/20 02:46:36;;;;;;;;;;;;;;;;;;4995735;28;19968;-77
2022/09/20 02:49:01;;;;;;;;;;;;;;;;;;4995462;28;19921;-75
2022/09/20 02:51:27;;;;;;;;;;;;;;;;;;4994955;28;19925;-77
2022/09/20 02:53:52;;;;;;;;;;;;;;;;;;4994212;28;19921;-77
2022/09/20 02:56:17;;;;;;;;;;;;;;;;;;4994836;28;20391;-78
2022/09/20 02:58:43;;;;;;;;;;;;;;;;;;4995366;28;20265;-77
2022/09/20 03:01:08;;;;;;;;;;;;;;;;;;4995436;28;19960;-77
2022/09/20 03:03:33;;;;;;;;;;;;;;;;;;4995228;28;19914;-77
2022/09/20 03:06:01;;;;;;;;;;;;;;;;;;4994152;28;20297;-77
2022/09/20 03:08:27;;;;;;;;;;;;;;;;;;4995039;28;19921;-77
2022/09/20 03:10:52;;;;;;;;;;;;;;;;;;4994437;28;20276;-77
2022/09/20 03:13:17;;;;;;;;;;;;;;;;;;4993877;28;19918;-76
2022/09/20 03:15:43;;;;;;;;;;;;;;;;;;4977767;28;19914;-77
2022/09/20 03:18:08;;;;;;;;;;;;;;;;;;4994740;28;19925;-77
2022/09/20 03:20:33;;;;;;;;;;;;;;;;;;4993762;28;19964;-77
2022/09/20 03:22:59;;;;;;;;;;;;;;;;;;4993509;28;19918;-78
2022/09/20 03:25:24;;;;;;;;;;;;;;;;;;4994949;28;19945;-77
2022/09/20 03:27:49;;;;;;;;;;;;;;;;;;4993861;28;19928;-77
2022/09/20 03:30:15;;;;;;;;;;;;;;;;;;4977322;28;19918;-77
2022/09/20 03:32:40;;;;;;;;;;;;;;;;;;4977267;28;19913;-77
2022/09/20 03:35:06;;;;;;;;;;;;;;;;;;4994758;28;19921;-77
2022/09/20 03:37:31;;;;;;;;;;;;;;;;;;4993361;28;19960;-77
2022/09/20 03:39:56;;;;;;;;;;;;;;;;;;4994370;28;19922;-77
2022/09/20 03:42:22;;;;;;;;;;;;;;;;;;4993324;28;20396;-76
2022/09/20 03:44:47;;;;;;;;;;;;;;;;;;4993307;28;20373;-76
2022/09/20 03:47:12;;;;;;;;;;;;;;;;;;4977432;28;20369;-77
2022/09/20 03:49:39;;;;;;;;;;;;;;;;;;4997082;28;20403;-76
2022/09/20 03:52:05;;;;;;;;;;;;;;;;;;4995685;28;19914;-77
2022/09/20 03:54:30;;;;;;;;;;;;;;;;;;4994214;28;19921;-77
2022/09/20 03:56:57;;;;;;;;;;;;;;;;;;4993231;28;19913;-77
2022/09/20 03:59:22;;;;;;;;;;;;;;;;;;4993031;28;20016;-77
2022/09/20 04:01:48;;;;;;;;;;;;;;;;;;4993377;28;20001;-77
2022/09/20 04:04:13;;;;;;;;;;;;;;;;;;4994052;28;19936;-77
2022/09/20 04:06:39;;;;;;;;;;;;;;;;;;4993248;28;19960;-77
2022/09/20 04:09:04;;;;;;;;;;;;;;;;;;4993897;28;19913;-77
2022/09/20 04:11:30;;;;;;;;;;;;;;;;;;4992983;28;19918;-77
2022/09/20 04:13:55;;;;;;;;;;;;;;;;;;4993806;28;20320;-77
2022/09/20 04:16:21;;;;;;;;;;;;;;;;;;4993454;28;19914;-77
2022/09/20 04:18:46;;;;;;;;;;;;;;;;;;4992754;28;19960;-77
2022/09/20 04:21:11;;;;;;;;;;;;;;;;;;4994060;28;19917;-77
2022/09/20 04:23:37;;;;;;;;;;;;;;;;;;4994156;28;20004;-77
2022/09/20 04:26:02;;;;;;;;;;;;;;;;;;4992121;28;20012;-77
2022/09/20 04:28:27;;;;;;;;;;;;;;;;;;4992918;28;19914;-77
2022/09/20 04:30:54;;;;;;;;;;;;;;;;;;4976246;28;19917;-76
2022/09/20 04:33:19;;;;;;;;;;;;;;;;;;4992158;28;19913;-77
2022/09/20 04:38:29;;;;;;;;;;;;;;;;;;4959161;28;19993;-77
2022/09/20 04:40:54;;;;;;;;;;;;;;;;;;4976591;28;20364;-77
2022/09/20 04:43:19;;;;;;;;;;;;;;;;;;4993801;28;20273;-77
2022/09/20 04:45:45;;;;;;;;;;;;;;;;;;4993524;28;19940;-76
2022/09/20 04:48:10;;;;;;;;;;;;;;;;;;4992190;28;19953;-77
2022/09/20 04:50:36;;;;;;;;;;;;;;;;;;4991870;28;19914;-77
2022/09/20 04:53:05;;;;;;;;;;;;;;;;;;4993065;28;19917;-77
2022/09/20 04:55:30;;;;;;;;;;;;;;;;;;4993434;28;19968;-78
2022/09/20 04:57:55;;;;;;;;;;;;;;;;;;4989425;28;20369;-76
2022/09/20 05:00:21;;;;;;;;;;;;;;;;;;4993246;28;19976;-77
2022/09/20 05:02:46;;;;;;;;;;;;;;;;;;4991247;28;19913;-77
2022/09/20 05:05:13;;;;;;;;;;;;;;;;;;4991675;28;19910;-77
2022/09/20 05:07:38;;;;;;;;;;;;;;;;;;4992735;28;20301;-77
2022/09/20 05:10:05;;;;;;;;;;;;;;;;;;4991758;28;19976;-76
2022/09/20 05:12:32;;;;;;;;;;;;;;;;;;4991640;28;19918;-77
2022/09/20 05:14:58;;;;;;;;;;;;;;;;;;4991556;28;19914;-77
2022/09/20 05:17:24;;;;;;;;;;;;;;;;;;4991581;28;19914;-77
2022/09/20 05:19:50;;;;;;;;;;;;;;;;;;4990393;28;19961;-77
2022/09/20 05:22:18;;;;;;;;;;;;;;;;;;4991097;28;19914;-77
2022/09/20 05:24:43;;;;;;;;;;;;;;;;;;4992312;28;19921;-78
2022/09/20 05:27:09;;;;;;;;;;;;;;;;;;4991204;28;20365;-77
2022/09/20 05:29:34;;;;;;;;;;;;;;;;;;4990724;28;19917;-77
2022/09/20 05:32:00;;;;;;;;;;;;;;;;;;4990695;28;20053;-76
2022/09/20 05:34:25;;;;;;;;;;;;;;;;;;4990431;28;19965;-77
2022/09/20 05:36:50;;;;;;;;;;;;;;;;;;4959198;28;19910;-77
2022/09/20 05:39:16;;;;;;;;;;;;;;;;;;4990793;28;19921;-77
2022/09/20 05:41:43;;;;;;;;;;;;;;;;;;4991707;28;21277;-77
2022/09/20 05:44:10;;;;;;;;;;;;;;;;;;4992127;28;19965;-77
2022/09/20 05:46:35;;;;;;;;;;;;;;;;;;4974941;28;19960;-77
2022/09/20 05:49:01;;;;;;;;;;;;;;;;;;4991908;28;19988;-77
2022/09/20 05:51:26;;;;;;;;;;;;;;;;;;4987327;28;19914;-77
2022/09/20 05:53:52;;;;;;;;;;;;;;;;;;4987700;28;19960;-77
2022/09/20 05:56:17;;;;;;;;;;;;;;;;;;4992120;28;19914;-77
2022/09/20 05:58:43;;;;;;;;;;;;;;;;;;4992066;28;19941;-77
2022/09/20 06:01:09;;;;;;;;;;;;;;;;;;4992225;28;19914;-77
2022/09/20 06:03:35;;;;;;;;;;;;;;;;;;4974694;28;19914;-77
2022/09/20 06:06:00;;;;;;;;;;;;;;;;;;4991754;28;19937;-77
2022/09/20 06:08:26;;;;;;;;;;;;;;;;;;4990036;28;19914;-77
2022/09/20 06:10:51;;;;;;;;;;;;;;;;;;4990932;28;19983;-77
2022/09/20 06:13:18;;;;;;;;;;;;;;;;;;4991905;28;20369;-77
2022/09/20 06:15:43;;;;;;;;;;;;;;;;;;4990466;28;19909;-77
2022/09/20 06:18:09;;;;;;;;;;;;;;;;;;4974482;28;19932;-77
2022/09/20 06:20:34;;;;;;;;;;;;;;;;;;4974213;28;19914;-77
2022/09/20 06:23:00;;;;;;;;;;;;;;;;;;4981064;28;19929;-77
2022/09/20 06:25:28;;;;;;;;;;;;;;;;;;4992346;28;19953;-77
2022/09/20 06:27:54;;;;;;;;;;;;;;;;;;4990915;28;19914;-77
2022/09/20 06:30:19;;;;;;;;;;;;;;;;;;4958207;28;19988;-77
2022/09/20 06:32:44;;;;;;;;;;;;;;;;;;4990424;28;19976;-77
2022/09/20 06:35:10;;;;;;;;;;;;;;;;;;4991877;28;19918;-77
2022/09/20 06:43:03;;;;;;;;;;;;;;;;;;4990280;28;19964;-76
2022/09/20 06:45:30;;;;;;;;;;;;;;;;;;4991115;28;20384;-77
2022/09/20 06:47:56;;;;;;;;;;;;;;;;;;4992637;28;20377;-78
2022/09/20 06:50:21;;;;;;;;;;;;;;;;;;4995317;28;19928;-77
2022/09/20 06:52:48;;;;;;;;;;;;;;;;;;4994912;28;20385;-77
2022/09/20 06:55:13;;;;;;;;;;;;;;;;;;4994263;28;19910;-78
2022/09/20 06:57:39;;;;;;;;;;;;;;;;;;4977770;28;20318;-77
2022/09/20 07:00:05;;;;;;;;;;;;;;;;;;4994990;28;19917;-77
2022/09/20 07:02:30;;;;;;;;;;;;;;;;;;4993764;28;19918;-77
2022/09/20 07:04:56;;;;;;;;;;;;;;;;;;4995167;28;19941;-77
2022/09/20 07:07:22;;;;;;;;;;;;;;;;;;4993768;28;19921;-77
2022/09/20 07:09:47;;;;;;;;;;;;;;;;;;4986916;28;19914;-77
2022/09/20 07:12:12;;;;;;;;;;;;;;;;;;4993491;28;20134;-77
2022/09/20 07:14:38;;;;;;;;;;;;;;;;;;4993387;28;19914;-76
2022/09/20 07:17:03;;;;;;;;;;;;;;;;;;4994653;28;20301;-77
2022/09/20 07:19:28;;;;;;;;;;;;;;;;;;4994612;28;19924;-76
2022/09/20 07:21:54;;;;;;;;;;;;;;;;;;4994710;28;19913;-76
2022/09/20 07:24:19;;;;;;;;;;;;;;;;;;4993175;28;20301;-76
2022/09/20 07:26:45;;;;;;;;;;;;;;;;;;4993368;28;19914;-76
2022/09/20 07:29:10;;;;;;;;;;;;;;;;;;4976902;28;19917;-76
2022/09/20 07:31:35;;;;;;;;;;;;;;;;;;4993252;28;19913;-76
2022/09/20 07:34:01;;;;;;;;;;;;;;;;;;4993082;28;19914;-76
2022/09/20 07:36:28;;;;;;;;;;;;;;;;;;4976921;28;20284;-77
2022/09/20 07:38:53;;;;;;;;;;;;;;;;;;4994205;28;20380;-76
2022/09/20 07:41:18;;;;;;;;;;;;;;;;;;4994384;28;20072;-77
2022/09/20 07:43:44;;;;;;;;;;;;;;;;;;4992932;28;19916;-77
2022/09/20 07:46:10;;;;;;;;;;;;;;;;;;4993291;28;19918;-77
2022/09/20 07:48:36;;;;;;;;;;;;;;;;;;4994057;28;20004;-77
2022/09/20 07:51:02;;;;;;;;;;;;;;;;;;4994123;28;19920;-77
2022/09/20 07:53:27;;;;;;;;;;;;;;;;;;4994006;28;19914;-76
2022/09/20 07:55:53;;;;;;;;;;;;;;;;;;4993738;28;19993;-78
2022/09/20 07:58:18;;;;;;;;;;;;;;;;;;4992495;28;19961;-77
2022/09/20 08:00:44;;;;;;;;;;;;;;;;;;4975642;28;19936;-77
2022/09/20 08:03:09;;;;;;;;;;;;;;;;;;4982105;28;20360;-77
2022/09/20 08:05:34;;;;;;;;;;;;;;;;;;4992591;28;19920;-77
2022/09/20 08:08:00;;;;;;;;;;;;;;;;;;4976525;28;20282;-77
2022/09/20 08:10:25;;;;;;;;;;;;;;;;;;4992471;28;19952;-78
2022/09/20 08:12:51;;;;;;;;;;;;;;;;;;4992582;28;19914;-78
2022/09/20 08:15:16;;;;;;;;;;;;;;;;;;4993785;28;19921;-77
2022/09/20 08:17:42;;;;;;;;;;;;;;;;;;4993738;28;20341;-77
2022/09/20 08:20:07;;;;;;;;;;;;;;;;;;4992666;28;19928;-77
2022/09/20 08:22:33;;;;;;;;;;;;;;;;;;4992118;28;20390;-77
2022/09/20 08:24:59;;;;;;;;;;;;;;;;;;4993562;28;19914;-78
2022/09/20 08:27:24;;;;;;;;;;;;;;;;;;4993668;28;19918;-78
2022/09/20 08:29:51;;;;;;;;;;;;;;;;;;4993021;28;19980;-77
2022/09/20 08:32:16;;;;;;;;;;;;;;;;;;4972963;28;20386;-78
2022/09/20 08:34:41;;;;;;;;;;;;;;;;;;4981054;28;19953;-78
2022/09/20 08:37:07;;;;;;;;;;;;;;;;;;4993440;28;19914;-77
2022/09/20 08:39:32;;;;;;;;;;;;;;;;;;4975490;28;20016;-78
2022/09/20 08:41:58;;;;;;;;;;;;;;;;;;4992948;28;20373;-77
2022/09/20 08:44:26;;;;;;;;;;;;;;;;;;4991974;28;19972;-77
2022/09/20 08:46:51;;;;;;;;;;;;;;;;;;4988556;28;19920;-77
2022/09/20 08:49:17;;;;;;;;;;;;;;;;;;4990223;28;20012;-77
2022/09/20 08:51:42;;;;;;;;;;;;;;;;;;4991041;28;19914;-77
2022/09/20 08:54:14;;;;;;;;;;;;;;;;;;4991421;28;20297;-77
2022/09/20 08:56:40;;;;;;;;;;;;;;;;;;4991369;28;19937;-77
2022/09/20 08:59:06;;;;;;;;;;;;;;;;;;4992577;28;19918;-77
2022/09/20 09:01:32;;;;;;;;;;;;;;;;;;4992418;28;19913;-77
2022/09/20 09:03:57;;;;;;;;;;;;;;;;;;4991184;28;19914;-76
2022/09/20 09:06:23;;;;;;;;;;;;;;;;;;4992673;28;19964;-77
2022/09/20 09:08:50;;;;;;;;;;;;;;;;;;4975131;28;19913;-77
2022/09/20 09:11:16;;;;;;;;;;;;;;;;;;4990238;28;20293;-76
2022/09/20 09:13:41;;;;;;;;;;;;;;;;;;4991514;28;19914;-77
2022/09/20 09:16:08;;;;;;;;;;;;;;;;;;4993793;28;19965;-77
2022/09/20 09:18:34;;;;;;;;;;;;;;;;;;4996756;28;19925;-77
2022/09/20 09:21:03;;;;;;;;;;;;;;;;;;4995891;28;20297;-77
2022/09/20 09:23:30;;;;;;;;;;;;;;;;;;4996615;28;19936;-77
2022/09/20 09:25:56;;;;;;;;;;;;;;;;;;4991201;28;19972;-76
2022/09/20 09:28:22;;;;;;;;;;;;;;;;;;4992159;28;19913;-77
2022/09/20 09:30:47;;;;;;;;;;;;;;;;;;4974943;28;19914;-77
2022/09/20 09:35:58;;;;;;;;;;;;;;;;;;4991461;28;19914;-84
2022/09/20 09:38:23;;;;;;;;;;;;;;;;;;4959190;28;19987;-84
2022/09/20 09:40:49;;;;;;;;;;;;;;;;;;4993012;28;19917;-84
2022/09/20 09:43:14;;;;;;;;;;;;;;;;;;4994116;28;20369;-83
2022/09/20 09:45:40;;;;;;;;;;;;;;;;;;4992690;28;19918;-83
2022/09/20 09:48:06;;;;;;;;;;;;;;;;;;4991438;28;20008;-83
2022/09/20 09:50:32;;;;;;;;;;;;;;;;;;4991877;28;19920;-83
2022/09/20 09:52:58;;;;;;;;;;;;;;;;;;4991597;28;20419;-83
2022/09/20 09:55:23;;;;;;;;;;;;;;;;;;4975657;28;19920;-83
2022/09/20 09:57:52;;;;;;;;;;;;;;;;;;4991208;28;19914;-83
2022/09/20 10:00:18;;;;;;;;;;;;;;;;;;4990885;28;19918;-82
2022/09/20 10:02:43;;;;;;;;;;;;;;;;;;4990935;28;20376;-82
2022/09/20 10:05:09;;;;;;;;;;;;;;;;;;4991333;28;20292;-83
2022/09/20 10:07:35;;;;;;;;;;;;;;;;;;4990918;28;20369;-81
2022/09/20 10:10:03;;;;;;;;;;;;;;;;;;4990661;28;19917;-83
2022/09/20 10:12:29;;;;;;;;;;;;;;;;;;4992021;28;20012;-82
2022/09/20 10:14:54;;;;;;;;;;;;;;;;;;4992163;28;20359;-82
2022/09/20 10:17:20;;;;;;;;;;;;;;;;;;4992188;28;19979;-82
2022/09/20 10:19:45;;;;;;;;;;;;;;;;;;4990745;28;20361;-82
2022/09/20 10:22:11;;;;;;;;;;;;;;;;;;4990789;28;20004;-82
2022/09/20 10:24:36;;;;;;;;;;;;;;;;;;4994404;28;19920;-81
2022/09/20 10:27:02;;;;;;;;;;;;;;;;;;4995742;28;19953;-78
2022/09/20 10:29:27;;;;;;;;;;;;;;;;;;4995405;28;20381;-80
2022/09/20 10:31:55;;;;;;;;;;;;;;;;;;4995348;28;19917;-79
2022/09/20 10:34:20;;;;;;;;;;;;;;;;;;4995394;28;19953;-81
2022/09/20 10:36:46;;;;;;;;;;;;;;;;;;4994613;28;19968;-80
2022/09/20 10:39:11;;;;;;;;;;;;;;;;;;4996229;28;19928;-83
2022/09/20 10:44:21;;;;;;;;;;;;;;;;;;4988886;28;20388;-84
2022/09/20 10:46:46;;;;;;;;;;;;;;;;;;4994514;28;19921;-83
2022/09/20 10:49:12;;;;;;;;;;;;;;;;;;4993810;28;19948;-84
2022/09/20 10:51:38;;;;;;;;;;;;;;;;;;4995388;28;19914;-84
2022/09/20 10:54:03;;;;;;;;;;;;;;;;;;4993962;28;19921;-87
2022/09/20 10:56:28;;;;;;;;;;;;;;;;;;4983603;28;19913;-85
2022/09/20 10:58:54;;;;;;;;;;;;;;;;;;4995434;28;20008;-85
2022/09/20 11:01:20;;;;;;;;;;;;;;;;;;4994701;28;19918;-86
2022/09/20 11:03:45;;;;;;;;;;;;;;;;;;4977987;28;19928;-84
2022/09/20 11:06:11;;;;;;;;;;;;;;;;;;4994462;28;19920;-84
2022/09/20 11:08:37;;;;;;;;;;;;;;;;;;4994090;28;19914;-84
2022/09/20 11:11:02;;;;;;;;;;;;;;;;;;4994958;28;19914;-86
2022/09/20 11:13:28;;;;;;;;;;;;;;;;;;4993409;28;19914;-83
2022/09/20 11:15:54;;;;;;;;;;;;;;;;;;4994582;28;19921;-84
2022/09/20 11:18:22;;;;;;;;;;;;;;;;;;4993016;28;20329;-84
2022/09/20 11:20:47;;;;;;;;;;;;;;;;;;4995805;28;20435;-85
2022/09/20 11:23:12;;;;;;;;;;;;;;;;;;4961707;28;19948;-84
2022/09/20 11:25:38;;;;;;;;;;;;;;;;;;4977884;28;19916;-83
2022/09/20 11:28:03;;;;;;;;;;;;;;;;;;5000574;28;19920;-83
2022/09/20 11:30:28;;;;;;;;;;;;;;;;;;4997168;28;19953;-83
2022/09/20 11:32:54;;;;;;;;;;;;;;;;;;4979509;28;19949;-82
2022/09/20 11:35:19;;;;;;;;;;;;;;;;;;4991447;28;19914;-81
2022/09/20 11:37:45;;;;;;;;;;;;;;;;;;4994543;28;20376;-83
2022/09/20 11:40:11;;;;;;;;;;;;;;;;;;4993963;28;19921;-82
2022/09/20 11:42:37;;;;;;;;;;;;;;;;;;4977119;28;19964;-77
2022/09/20 11:45:02;;;;;;;;;;;;;;;;;;4995050;28;19914;-78
2022/09/20 11:47:27;;;;;;;;;;;;;;;;;;4993717;28;20353;-78
2022/09/20 11:49:53;;;;;;;;;;;;;;;;;;4993585;28;19968;-77
2022/09/20 11:52:18;;;;;;;;;;;;;;;;;;4993054;28;19917;-80
2022/09/20 11:54:43;;;;;;;;;;;;;;;;;;4992759;28;20311;-78
2022/09/20 11:57:09;;;;;;;;;;;;;;;;;;4981564;28;20015;-76
2022/09/20 11:59:34;;;;;;;;;;;;;;;;;;4992348;28;19917;-77
2022/09/20 12:02:00;;;;;;;;;;;;;;;;;;4993270;28;20388;-77
2022/09/20 12:04:25;;;;;;;;;;;;;;;;;;4993646;28;19979;-76
2022/09/20 12:06:51;;;;;;;;;;;;;;;;;;4992470;28;20286;-77
2022/09/20 12:09:16;;;;;;;;;;;;;;;;;;4991968;28;19910;-77
2022/09/20 12:11:42;;;;;;;;;;;;;;;;;;4993337;28;20381;-77
2022/09/20 12:14:07;;;;;;;;;;;;;;;;;;4993202;28;19920;-77
2022/09/20 12:16:32;;;;;;;;;;;;;;;;;;4991666;28;20380;-77
2022/09/20 12:18:58;;;;;;;;;;;;;;;;;;4993047;28;20437;-77
2022/09/20 12:21:23;;;;;;;;;;;;;;;;;;4992001;28;20374;-77
2022/09/20 12:23:49;;;;;;;;;;;;;;;;;;4992966;28;20365;-78
2022/09/20 12:26:14;;;;;;;;;;;;;;;;;;4992140;28;20001;-78
2022/09/20 12:28:40;;;;;;;;;;;;;;;;;;4993531;28;19924;-78
2022/09/20 12:31:05;;;;;;;;;;;;;;;;;;4993019;28;20691;-78
2022/09/20 12:33:30;;;;;;;;;;;;;;;;;;4991908;28;19910;-76
2022/09/20 12:35:56;;;;;;;;;;;;;;;;;;4991804;28;19968;-78
2022/09/20 12:38:21;;;;;;;;;;;;;;;;;;4992719;28;20478;-77
2022/09/20 12:40:47;;;;;;;;;;;;;;;;;;4991729;28;20285;-77
2022/09/20 12:43:12;;;;;;;;;;;;;;;;;;4994137;28;19953;-76
2022/09/20 12:45:38;;;;;;;;;;;;;;;;;;4991239;28;20004;-76
2022/09/20 12:48:03;;;;;;;;;;;;;;;;;;4990961;28;19917;-77
2022/09/20 12:53:13;;;;;;;;;;;;;;;;;;4991201;28;20439;-76
2022/09/20 12:55:39;;;;;;;;;;;;;;;;;;4993163;28;19922;-77
2022/09/20 12:58:05;;;;;;;;;;;;;;;;;;4990909;28;19913;-76
2022/09/20 13:00:30;;;;;;;;;;;;;;;;;;4988548;28;19918;-77
2022/09/20 13:02:56;;;;;;;;;;;;;;;;;;4990713;28;20332;-77
2022/09/20 13:05:21;;;;;;;;;;;;;;;;;;4992515;28;19956;-77
2022/09/20 13:07:47;;;;;;;;;;;;;;;;;;4992530;28;19935;-76
2022/09/20 13:10:12;;;;;;;;;;;;;;;;;;4990813;28;20423;-76
2022/09/20 13:12:38;;;;;;;;;;;;;;;;;;4974609;28;20358;-77
2022/09/20 13:15:03;;;;;;;;;;;;;;;;;;4991858;28;20017;-76
2022/09/20 13:17:30;;;;;;;;;;;;;;;;;;4990833;28;20587;-77
2022/09/20 13:19:56;;;;;;;;;;;;;;;;;;4992207;28;19941;-76
2022/09/20 13:22:21;;;;;;;;;;;;;;;;;;4992543;28;19994;-76
2022/09/20 13:24:47;;;;;;;;;;;;;;;;;;4991871;28;19909;-76
2022/09/20 13:27:12;;;;;;;;;;;;;;;;;;4990706;28;19914;-77
2022/09/20 13:29:38;;;;;;;;;;;;;;;;;;4992232;28;19968;-77
2022/09/20 13:32:04;;;;;;;;;;;;;;;;;;4990742;28;20264;-77
2022/09/20 13:34:29;;;;;;;;;;;;;;;;;;4993912;28;19925;-77
2022/09/20 13:36:55;;;;;;;;;;;;;;;;;;4993819;28;19918;-77
2022/09/20 13:39:20;;;;;;;;;;;;;;;;;;4976938;23;19932;-78
2022/09/20 13:41:47;;;;;;;;;;;;;;;;;;4971480;28;19953;-76
2022/09/20 13:44:12;;;;;;;;;;;;;;;;;;4955884;28;20353;-77
2022/09/20 13:46:38;;;;;;;;;;;;;;;;;;4962496;28;19920;-78
2022/09/20 13:49:03;;;;;;;;;;;;;;;;;;4971134;28;19914;-78
2022/09/20 13:51:28;;;;;;;;;;;;;;;;;;4970850;28;19950;-79
2022/09/20 13:53:54;;;;;;;;;;;;;;;;;;4970551;28;19965;-79
2022/09/20 13:56:20;;;;;;;;;;;;;;;;;;4971398;28;19914;-77
2022/09/20 13:58:45;;;;;;;;;;;;;;;;;;4950285;28;19918;-76
2022/09/20 14:01:10;;;;;;;;;;;;;;;;;;4975218;28;20414;-77
2022/09/20 14:03:36;;;;;;;;;;;;;;;;;;4976585;28;19941;-77
2022/09/20 14:06:01;;;;;;;;;;;;;;;;;;4975427;28;19914;-78
2022/09/20 14:08:26;;;;;;;;;;;;;;;;;;4974574;28;19979;-78
2022/09/20 14:10:52;;;;;;;;;;;;;;;;;;4975095;28;19918;-77
2022/09/20 14:13:17;;;;;;;;;;;;;;;;;;4974820;28;19918;-78
2022/09/20 14:15:43;;;;;;;;;;;;;;;;;;4975966;28;19914;-78
2022/09/20 14:18:08;;;;;;;;;;;;;;;;;;4974784;28;19918;-77
2022/09/20 14:20:34;;;;;;;;;;;;;;;;;;4949685;28;20428;-77
2022/09/20 14:22:59;;;;;;;;;;;;;;;;;;4975625;28;19914;-76
2022/09/20 14:25:25;;;;;;;;;;;;;;;;;;4951180;28;19915;-78
2022/09/20 14:27:50;;;;;;;;;;;;;;;;;;4974626;28;19922;-76
2022/09/20 14:30:16;;;;;;;;;;;;;;;;;;4965421;28;20385;-78
2022/09/20 14:32:41;;;;;;;;;;;;;;;;;;4966861;28;19937;-76
2022/09/20 14:35:07;;;;;;;;;;;;;;;;;;4974684;28;19922;-79
2022/09/20 14:37:32;;;;;;;;;;;;;;;;;;4974100;28;19953;-78
2022/09/20 14:39:57;;;;;;;;;;;;;;;;;;4974190;28;19971;-78
2022/09/20 14:42:23;;;;;;;;;;;;;;;;;;4973999;28;19914;-79
2022/09/20 14:44:48;;;;;;;;;;;;;;;;;;4974215;28;19922;-78
2022/09/20 14:47:14;;;;;;;;;;;;;;;;;;4975249;28;19918;-79
2022/09/20 14:49:42;;;;;;;;;;;;;;;;;;4975102;28;19953;-80
2022/09/20 14:52:07;;;;;;;;;;;;;;;;;;4974452;28;19929;-78
2022/09/20 14:54:33;;;;;;;;;;;;;;;;;;4976053;28;19914;-78
2022/09/20 14:56:59;;;;;;;;;;;;;;;;;;4975812;28;19973;-78
2022/09/20 14:59:24;;;;;;;;;;;;;;;;;;4975725;28;20385;-78
2022/09/20 15:01:50;;;;;;;;;;;;;;;;;;4975448;28;19914;-79
2022/09/20 15:04:15;;;;;;;;;;;;;;;;;;4975157;28;19910;-77
2022/09/20 15:06:41;;;;;;;;;;;;;;;;;;4974326;28;19965;-79
2022/09/20 15:09:07;;;;;;;;;;;;;;;;;;4974233;28;20436;-79
2022/09/20 15:11:32;;;;;;;;;;;;;;;;;;4974462;28;20021;-78
2022/09/20 15:13:58;;;;;;;;;;;;;;;;;;4974075;28;19976;-78
2022/09/20 15:16:23;;;;;;;;;;;;;;;;;;4973899;28;19914;-79
2022/09/20 15:18:49;;;;;;;;;;;;;;;;;;4973665;28;19925;-78
2022/09/20 15:21:14;;;;;;;;;;;;;;;;;;4975117;28;19918;-79
2022/09/20 15:23:40;;;;;;;;;;;;;;;;;;4974828;28;19914;-79
2022/09/20 15:26:05;;;;;;;;;;;;;;;;;;4974062;28;19918;-79
2022/09/20 15:28:32;;;;;;;;;;;;;;;;;;4975017;28;19914;-80
2022/09/20 15:30:57;;;;;;;;;;;;;;;;;;4975190;28;19921;-79
2022/09/20 15:33:22;;;;;;;;;;;;;;;;;;4974962;28;19917;-79
2022/09/20 15:35:48;;;;;;;;;;;;;;;;;;4973834;28;19925;-79
2022/09/20 15:38:14;;;;;;;;;;;;;;;;;;4974184;28;19914;-78
2022/09/20 15:40:39;;;;;;;;;;;;;;;;;;4975212;28;19918;-78
2022/09/20 15:43:07;;;;;;;;;;;;;;;;;;4975078;28;19918;-80
2022/09/20 15:45:33;;;;;;;;;;;;;;;;;;4974626;28;20042;-79
2022/09/20 15:47:59;;;;;;;;;;;;;;;;;;4973373;28;20009;-79
2022/09/20 15:50:24;;;;;;;;;;;;;;;;;;4957066;28;20360;-78
2022/09/20 15:52:53;;;;;;;;;;;;;;;;;;4973488;28;20354;-78
2022/09/20 15:55:18;;;;;;;;;;;;;;;;;;4974239;28;19914;-79
2022/09/20 15:57:44;;;;;;;;;;;;;;;;;;4973544;28;19920;-78
2022/09/20 16:00:09;;;;;;;;;;;;;;;;;;4974560;28;19918;-78
2022/09/20 16:02:34;;;;;;;;;;;;;;;;;;4973364;28;20334;-79
2022/09/20 16:05:00;;;;;;;;;;;;;;;;;;4974553;28;20016;-78
2022/09/20 16:07:26;;;;;;;;;;;;;;;;;;4973246;28;20373;-78
2022/09/20 16:09:54;;;;;;;;;;;;;;;;;;4974353;28;19954;-79
2022/09/20 16:12:39;;;;;;;;;;;;;;;;;;4972699;28;19989;-78
2022/09/20 16:15:04;;;;;;;;;;;;;;;;;;4974743;28;20397;-79
2022/09/20 16:20:22;;;;;;;;;;;;;;;;;;4987021;28;20001;-78
2022/09/20 16:22:47;;;;;;;;;;;;;;;;;;4974085;28;19914;-78
2022/09/20 16:25:13;;;;;;;;;;;;;;;;;;4974083;28;19925;-78
2022/09/20 16:27:38;;;;;;;;;;;;;;;;;;4974114;28;19918;-79
2022/09/20 16:30:04;;;;;;;;;;;;;;;;;;4972394;28;20391;-78
2022/09/20 16:32:29;;;;;;;;;;;;;;;;;;4973288;28;19921;-77
2022/09/20 16:34:56;;;;;;;;;;;;;;;;;;4972314;28;19918;-78
2022/09/20 16:37:22;;;;;;;;;;;;;;;;;;4973763;28;19949;-77
2022/09/20 16:39:47;;;;;;;;;;;;;;;;;;4973046;28;20402;-77
2022/09/20 16:42:13;;;;;;;;;;;;;;;;;;4972279;28;19934;-79
2022/09/20 16:44:39;;;;;;;;;;;;;;;;;;4971943;28;19938;-79
2022/09/20 16:47:06;;;;;;;;;;;;;;;;;;4974307;28;19918;-77
2022/09/20 16:49:33;;;;;;;;;;;;;;;;;;4971883;28;19914;-78
2022/09/20 16:51:59;;;;;;;;;;;;;;;;;;4972804;28;20017;-79
2022/09/20 16:54:24;;;;;;;;;;;;;;;;;;4972063;28;20396;-77